sensor_id;sensor_type;location;lat;lon;timestamp;pressure;altitude;pressure_sealevel;temperature;humidity
73016;BME280;61893;50.074;14.440;2023-04-27T00:01:53;98651.97;;;6.17;55.91
73016;BME280;61893;50.074;14.440;2023-04-27T00:04:19;98647.53;;;6.17;56.10
73016;BME280;61893;50.074;14.440;2023-04-27T00:06:45;98648.50;;;5.94;57.42
73016;BME280;61893;50.074;14.440;2023-04-27T00:09:11;98644.06;;;6.05;56.92
73016;BME280;61893;50.074;14.440;2023-04-27T00:11:37;98651.63;;;5.99;57.73
73016;BME280;61893;50.074;14.440;2023-04-27T00:14:04;98646.59;;;5.96;57.54
73016;BME280;61893;50.074;14.440;2023-04-27T00:16:30;98640.59;;;6.05;57.40
73016;BME280;61893;50.074;14.440;2023-04-27T00:18:56;98641.06;;;6.10;57.35
73016;BME280;61893;50.074;14.440;2023-04-27T00:21:25;98636.38;;;6.14;56.86
73016;BME280;61893;50.074;14.440;2023-04-27T00:24:09;98630.50;;;6.21;56.35
73016;BME280;61893;50.074;14.440;2023-04-27T00:26:35;98637.47;;;6.00;57.25
73016;BME280;61893;50.074;14.440;2023-04-27T00:29:00;98631.56;;;5.85;58.41
73016;BME280;61893;50.074;14.440;2023-04-27T00:31:43;98641.03;;;5.87;58.97
73016;BME280;61893;50.074;14.440;2023-04-27T00:34:12;98636.81;;;5.51;59.53
73016;BME280;61893;50.074;14.440;2023-04-27T00:36:37;98627.56;;;5.57;60.06
73016;BME280;61893;50.074;14.440;2023-04-27T00:39:06;98636.09;;;5.83;60.08
73016;BME280;61893;50.074;14.440;2023-04-27T00:41:35;98630.06;;;5.36;61.27
73016;BME280;61893;50.074;14.440;2023-04-27T00:44:01;98626.59;;;5.58;61.33
73016;BME280;61893;50.074;14.440;2023-04-27T00:46:39;98638.38;;;5.54;61.86
73016;BME280;61893;50.074;14.440;2023-04-27T00:49:11;98638.88;;;5.59;61.26
73016;BME280;61893;50.074;14.440;2023-04-27T00:51:36;98635.31;;;5.25;61.51
73016;BME280;61893;50.074;14.440;2023-04-27T00:54:02;98638.53;;;5.17;62.20
73016;BME280;61893;50.074;14.440;2023-04-27T00:56:28;98629.06;;;5.26;61.58
73016;BME280;61893;50.074;14.440;2023-04-27T00:58:55;98629.69;;;5.29;61.76
73016;BME280;61893;50.074;14.440;2023-04-27T01:01:21;98640.56;;;5.13;62.57
73016;BME280;61893;50.074;14.440;2023-04-27T01:03:47;98631.31;;;5.08;62.33
73016;BME280;61893;50.074;14.440;2023-04-27T01:06:13;98638.63;;;5.04;62.54
73016;BME280;61893;50.074;14.440;2023-04-27T01:08:49;98638.22;;;5.33;61.98
73016;BME280;61893;50.074;14.440;2023-04-27T01:11:18;98636.47;;;5.09;63.06
73016;BME280;61893;50.074;14.440;2023-04-27T01:13:44;98630.25;;;5.10;62.42
73016;BME280;61893;50.074;14.440;2023-04-27T01:16:16;98631.81;;;5.13;62.73
73016;BME280;61893;50.074;14.440;2023-04-27T01:18:59;98637.28;;;4.99;63.61
73016;BME280;61893;50.074;14.440;2023-04-27T01:21:28;98636.34;;;4.76;64.17
73016;BME280;61893;50.074;14.440;2023-04-27T01:24:15;98631.53;;;4.69;64.11
73016;BME280;61893;50.074;14.440;2023-04-27T01:26:41;98638.16;;;4.51;65.14
73016;BME280;61893;50.074;14.440;2023-04-27T01:29:07;98632.66;;;4.54;65.06
73016;BME280;61893;50.074;14.440;2023-04-27T01:31:32;98632.84;;;4.64;65.03
73016;BME280;61893;50.074;14.440;2023-04-27T01:34:01;98640.03;;;4.49;65.52
73016;BME280;61893;50.074;14.440;2023-04-27T01:36:30;98635.41;;;4.53;65.99
73016;BME280;61893;50.074;14.440;2023-04-27T01:39:09;98635.78;;;4.35;66.04
73016;BME280;61893;50.074;14.440;2023-04-27T01:41:37;98634.09;;;4.34;65.59
73016;BME280;61893;50.074;14.440;2023-04-27T01:44:03;98633.81;;;4.26;66.02
73016;BME280;61893;50.074;14.440;2023-04-27T01:46:29;98643.63;;;4.24;66.17
73016;BME280;61893;50.074;14.440;2023-04-27T01:48:57;98648.22;;;4.33;65.69
73016;BME280;61893;50.074;14.440;2023-04-27T01:51:23;98645.16;;;4.39;66.80
73016;BME280;61893;50.074;14.440;2023-04-27T01:53:49;98637.63;;;4.09;66.63
73016;BME280;61893;50.074;14.440;2023-04-27T01:56:14;98642.41;;;4.04;66.81
73016;BME280;61893;50.074;14.440;2023-04-27T01:58:40;98649.97;;;4.09;66.32
73016;BME280;61893;50.074;14.440;2023-04-27T02:01:09;98646.28;;;4.11;66.46
73016;BME280;61893;50.074;14.440;2023-04-27T02:03:36;98654.78;;;4.15;67.08
73016;BME280;61893;50.074;14.440;2023-04-27T02:06:01;98648.91;;;4.11;66.57
73016;BME280;61893;50.074;14.440;2023-04-27T02:08:27;98655.38;;;4.31;66.32
73016;BME280;61893;50.074;14.440;2023-04-27T02:10:53;98657.56;;;4.13;66.12
73016;BME280;61893;50.074;14.440;2023-04-27T02:13:21;98667.16;;;4.01;66.19
73016;BME280;61893;50.074;14.440;2023-04-27T02:15:46;98652.50;;;4.10;66.24
73016;BME280;61893;50.074;14.440;2023-04-27T02:18:12;98655.56;;;3.91;67.10
73016;BME280;61893;50.074;14.440;2023-04-27T02:20:40;98660.63;;;3.94;66.52
73016;BME280;61893;50.074;14.440;2023-04-27T02:23:08;98660.72;;;4.05;66.69
73016;BME280;61893;50.074;14.440;2023-04-27T02:25:37;98649.34;;;4.05;67.08
73016;BME280;61893;50.074;14.440;2023-04-27T02:28:03;98651.25;;;4.03;66.86
73016;BME280;61893;50.074;14.440;2023-04-27T02:30:29;98657.88;;;4.09;66.27
73016;BME280;61893;50.074;14.440;2023-04-27T02:33:03;98660.31;;;3.99;67.95
73016;BME280;61893;50.074;14.440;2023-04-27T02:35:29;98662.94;;;3.99;67.36
73016;BME280;61893;50.074;14.440;2023-04-27T02:37:57;98668.31;;;3.97;67.33
73016;BME280;61893;50.074;14.440;2023-04-27T02:40:22;98662.41;;;4.06;67.31
73016;BME280;61893;50.074;14.440;2023-04-27T02:42:53;98659.56;;;4.10;66.87
73016;BME280;61893;50.074;14.440;2023-04-27T02:45:21;98667.13;;;4.14;66.37
73016;BME280;61893;50.074;14.440;2023-04-27T02:47:47;98663.50;;;4.28;66.33
73016;BME280;61893;50.074;14.440;2023-04-27T02:50:15;98664.19;;;4.43;66.14
73016;BME280;61893;50.074;14.440;2023-04-27T02:52:41;98664.19;;;4.43;65.47
73016;BME280;61893;50.074;14.440;2023-04-27T02:55:06;98674.06;;;4.52;65.81
73016;BME280;61893;50.074;14.440;2023-04-27T02:57:32;98674.81;;;4.54;65.38
73016;BME280;61893;50.074;14.440;2023-04-27T02:59:58;98675.09;;;4.38;66.69
73016;BME280;61893;50.074;14.440;2023-04-27T03:02:26;98668.63;;;4.42;65.99
73016;BME280;61893;50.074;14.440;2023-04-27T03:05:04;98660.41;;;4.47;66.43
73016;BME280;61893;50.074;14.440;2023-04-27T03:07:30;98665.25;;;4.40;66.61
73016;BME280;61893;50.074;14.440;2023-04-27T03:09:56;98665.72;;;4.34;66.40
73016;BME280;61893;50.074;14.440;2023-04-27T03:12:22;98667.47;;;4.10;67.40
73016;BME280;61893;50.074;14.440;2023-04-27T03:14:50;98666.41;;;4.12;67.74
73016;BME280;61893;50.074;14.440;2023-04-27T03:17:16;98666.81;;;4.19;67.24
73016;BME280;61893;50.074;14.440;2023-04-27T03:19:46;98663.13;;;4.21;68.16
73016;BME280;61893;50.074;14.440;2023-04-27T03:22:12;98674.81;;;4.17;68.26
73016;BME280;61893;50.074;14.440;2023-04-27T03:24:38;98675.84;;;4.15;66.65
73016;BME280;61893;50.074;14.440;2023-04-27T03:27:04;98685.69;;;4.13;67.15
73016;BME280;61893;50.074;14.440;2023-04-27T03:29:30;98684.00;;;3.86;68.20
73016;BME280;61893;50.074;14.440;2023-04-27T03:31:55;98685.38;;;3.92;68.07
73016;BME280;61893;50.074;14.440;2023-04-27T03:34:21;98683.13;;;4.11;67.79
73016;BME280;61893;50.074;14.440;2023-04-27T03:37:11;98684.09;;;4.10;66.89
73016;BME280;61893;50.074;14.440;2023-04-27T03:39:55;98681.78;;;4.05;67.23
73016;BME280;61893;50.074;14.440;2023-04-27T03:42:21;98686.91;;;4.20;67.35
73016;BME280;61893;50.074;14.440;2023-04-27T03:44:52;98682.22;;;4.12;66.91
73016;BME280;61893;50.074;14.440;2023-04-27T03:47:18;98691.56;;;4.16;66.74
73016;BME280;61893;50.074;14.440;2023-04-27T03:49:44;98691.88;;;4.12;67.71
73016;BME280;61893;50.074;14.440;2023-04-27T03:52:13;98687.66;;;4.22;66.67
73016;BME280;61893;50.074;14.440;2023-04-27T03:54:39;98697.66;;;4.17;66.96
73016;BME280;61893;50.074;14.440;2023-04-27T03:57:05;98695.03;;;4.29;66.30
73016;BME280;61893;50.074;14.440;2023-04-27T03:59:34;98704.81;;;4.15;66.95
73016;BME280;61893;50.074;14.440;2023-04-27T04:02:17;98702.88;;;4.55;66.30
73016;BME280;61893;50.074;14.440;2023-04-27T04:05:00;98702.81;;;4.68;65.63
73016;BME280;61893;50.074;14.440;2023-04-27T04:07:31;98700.22;;;4.55;65.92
73016;BME280;61893;50.074;14.440;2023-04-27T04:10:06;98699.84;;;4.36;67.06
73016;BME280;61893;50.074;14.440;2023-04-27T04:12:32;98702.50;;;4.23;67.30
73016;BME280;61893;50.074;14.440;2023-04-27T04:14:58;98703.94;;;4.40;66.66
73016;BME280;61893;50.074;14.440;2023-04-27T04:17:26;98705.66;;;4.41;66.89
73016;BME280;61893;50.074;14.440;2023-04-27T04:20:19;98710.72;;;4.31;67.21
73016;BME280;61893;50.074;14.440;2023-04-27T04:22:45;98713.09;;;4.47;67.59
73016;BME280;61893;50.074;14.440;2023-04-27T04:25:14;98718.41;;;4.71;66.26
73016;BME280;61893;50.074;14.440;2023-04-27T04:27:40;98722.38;;;4.53;66.56
73016;BME280;61893;50.074;14.440;2023-04-27T04:30:12;98718.72;;;4.66;66.50
73016;BME280;61893;50.074;14.440;2023-04-27T04:32:38;98723.28;;;4.64;66.71
73016;BME280;61893;50.074;14.440;2023-04-27T04:35:06;98719.22;;;4.71;66.33
73016;BME280;61893;50.074;14.440;2023-04-27T04:37:33;98728.41;;;4.66;66.45
73016;BME280;61893;50.074;14.440;2023-04-27T04:40:14;98726.16;;;4.85;64.51
73016;BME280;61893;50.074;14.440;2023-04-27T04:42:39;98729.38;;;5.37;64.49
73016;BME280;61893;50.074;14.440;2023-04-27T04:45:07;98740.38;;;5.66;63.18
73016;BME280;61893;50.074;14.440;2023-04-27T04:47:33;98745.50;;;6.03;61.45
73016;BME280;61893;50.074;14.440;2023-04-27T04:50:12;98745.97;;;5.50;63.20
73016;BME280;61893;50.074;14.440;2023-04-27T04:52:40;98741.25;;;5.42;62.90
73016;BME280;61893;50.074;14.440;2023-04-27T04:55:11;98746.41;;;5.79;61.82
73016;BME280;61893;50.074;14.440;2023-04-27T04:57:53;98749.31;;;5.87;62.41
73016;BME280;61893;50.074;14.440;2023-04-27T05:00:39;98752.72;;;6.12;61.40
73016;BME280;61893;50.074;14.440;2023-04-27T05:03:04;98747.91;;;6.06;61.40
73016;BME280;61893;50.074;14.440;2023-04-27T05:05:47;98748.16;;;6.25;61.01
73016;BME280;61893;50.074;14.440;2023-04-27T05:08:33;98751.09;;;7.32;58.48
73016;BME280;61893;50.074;14.440;2023-04-27T05:10:59;98752.38;;;7.16;58.19
73016;BME280;61893;50.074;14.440;2023-04-27T05:13:39;98753.84;;;8.04;56.16
73016;BME280;61893;50.074;14.440;2023-04-27T05:16:20;98758.56;;;9.90;50.30
73016;BME280;61893;50.074;14.440;2023-04-27T05:19:03;98760.44;;;9.31;51.11
73016;BME280;61893;50.074;14.440;2023-04-27T05:21:30;98752.72;;;8.99;51.31
73016;BME280;61893;50.074;14.440;2023-04-27T05:23:56;98757.91;;;11.00;46.45
73016;BME280;61893;50.074;14.440;2023-04-27T05:26:22;98760.06;;;11.14;45.78
73016;BME280;61893;50.074;14.440;2023-04-27T05:29:34;98755.56;;;10.12;48.39
73016;BME280;61893;50.074;14.440;2023-04-27T05:32:14;98747.72;;;11.85;44.74
73016;BME280;61893;50.074;14.440;2023-04-27T05:35:01;98751.28;;;12.46;43.13
73016;BME280;61893;50.074;14.440;2023-04-27T05:37:39;98765.50;;;13.56;40.44
73016;BME280;61893;50.074;14.440;2023-04-27T05:40:14;98764.03;;;13.02;40.78
73016;BME280;61893;50.074;14.440;2023-04-27T05:42:53;98754.34;;;12.25;42.22
73016;BME280;61893;50.074;14.440;2023-04-27T05:45:43;98764.50;;;10.41;46.20
73016;BME280;61893;50.074;14.440;2023-04-27T05:48:31;98756.38;;;15.02;37.40
73016;BME280;61893;50.074;14.440;2023-04-27T05:53:59;98758.97;;;16.11;35.17
